Time;durP1;ratioP1;P1;durP2;ratioP2;P2;SDS_P1;SDS_P2;PMS_P1;PMS_P2;Temp;Humidity;BMP_temperature;BMP_pressure;BME280_temperature;BME280_humidity;BME280_pressure;Samples;Min_cycle;Max_cycle;Signal;HPM_P1;HPM_P2
2023/04/13 00:01:25;;;;;;;2.70;1.83;;;7.50;99.90;;;;;;7578138;19;20126;-72
2023/04/13 00:04:01;;;;;;;2.50;1.45;;;7.50;99.90;;;;;;7563627;19;20014;-73
2023/04/13 00:06:37;;;;;;;5.65;1.92;;;7.50;99.90;;;;;;7582801;19;20026;-72
2023/04/13 00:09:10;;;;;;;3.03;1.65;;;7.50;99.90;;;;;;7569844;19;21327;-72
2023/04/13 00:11:42;;;;;;;1.88;1.52;;;7.50;99.90;;;;;;7543129;19;20654;-72
2023/04/13 00:14:14;;;;;;;2.30;1.50;;;7.40;99.90;;;;;;7569489;19;20905;-72
2023/04/13 00:16:46;;;;;;;2.45;1.45;;;7.40;99.90;;;;;;7574844;19;20018;-72
2023/04/13 00:19:19;;;;;;;2.45;1.27;;;7.40;99.90;;;;;;7580448;19;20589;-73
2023/04/13 00:21:52;;;;;;;6.03;1.17;;;7.30;99.90;;;;;;7599793;19;20113;-73
2023/04/13 00:24:24;;;;;;;2.90;1.00;;;7.20;99.90;;;;;;7598039;19;20618;-73
2023/04/13 00:26:57;;;;;;;1.50;0.80;;;7.10;99.90;;;;;;7568271;19;20065;-73
2023/04/13 00:29:29;;;;;;;1.40;0.85;;;7.00;99.90;;;;;;7595882;19;20018;-72
2023/04/13 00:32:01;;;;;;;2.53;0.80;;;6.90;99.90;;;;;;7599398;19;20529;-73
2023/04/13 00:34:34;;;;;;;;;;;6.90;99.90;;;;;;7581006;19;20021;-72
2023/04/13 00:37:07;;;;;;;0.70;0.70;;;6.90;99.90;;;;;;7578597;19;19927;-72
2023/04/13 00:39:42;;;;;;;2.35;0.80;;;6.90;99.90;;;;;;7552677;19;20014;-72
2023/04/13 00:42:17;;;;;;;1.33;0.80;;;6.80;99.90;;;;;;7553610;19;20018;-72
2023/04/13 00:44:49;;;;;;;1.92;0.90;;;6.80;99.90;;;;;;7576167;19;20014;-71
2023/04/13 00:47:32;;;;;;;0.60;0.60;;;6.80;99.90;;;;;;7574398;19;20055;-72
2023/04/13 00:50:05;;;;;;;0.60;0.60;;;6.70;99.90;;;;;;7579482;19;20032;-71
2023/04/13 00:52:39;;;;;;;0.60;0.60;;;6.70;99.90;;;;;;7578125;19;20271;-71
2023/04/13 00:55:13;;;;;;;;;;;6.60;99.90;;;;;;7570543;19;20017;-71
2023/04/13 00:57:48;;;;;;;0.70;0.57;;;6.60;99.90;;;;;;7581760;19;19934;-72
2023/04/13 01:00:23;;;;;;;1.05;0.60;;;6.50;99.90;;;;;;7597176;19;20038;-72
2023/04/13 01:03:00;;;;;;;1.00;0.50;;;6.40;99.90;;;;;;7598796;19;20118;-72
2023/04/13 01:05:41;;;;;;;1.40;0.65;;;6.50;99.90;;;;;;7592008;19;20913;-72
2023/04/13 01:08:30;;;;;;;1.35;0.80;;;6.30;99.90;;;;;;7601038;19;20018;-72
2023/04/13 01:11:10;;;;;;;0.47;0.40;;;6.30;99.90;;;;;;7594487;19;24729;-72
2023/04/13 01:13:47;;;;;;;1.05;0.70;;;6.30;99.90;;;;;;7596303;19;20021;-72
2023/04/13 01:16:41;;;;;;;0.60;0.60;;;6.30;99.90;;;;;;7599590;19;20021;-72
2023/04/13 01:19:33;;;;;;;1.27;0.60;;;6.30;99.90;;;;;;7605214;19;20748;-72
2023/04/13 01:22:07;;;;;;;1.38;0.45;;;6.20;99.90;;;;;;7596055;19;20018;-73
2023/04/13 01:24:52;;;;;;;0.60;0.50;;;6.20;99.90;;;;;;7599409;19;20034;-72
2023/04/13 01:27:43;;;;;;;0.90;0.60;;;6.30;99.90;;;;;;7597334;19;20022;-72
2023/04/13 01:30:20;;;;;;;1.00;0.90;;;6.20;99.90;;;;;;7601637;19;20062;-72
2023/04/13 01:32:58;;;;;;;0.60;0.50;;;6.20;99.90;;;;;;7596621;19;20022;-71
2023/04/13 01:35:32;;;;;;;0.50;0.50;;;6.20;99.90;;;;;;7596047;19;20117;-72
2023/04/13 01:38:05;;;;;;;0.60;0.60;;;6.20;99.90;;;;;;7602498;19;20033;-72
2023/04/13 01:40:40;;;;;;;0.98;0.68;;;6.30;99.90;;;;;;7594433;19;20110;-71
2023/04/13 01:43:14;;;;;;;0.60;0.60;;;6.30;99.90;;;;;;7598560;19;20022;-72
2023/04/13 01:45:55;;;;;;;0.70;0.70;;;6.40;99.90;;;;;;7594207;19;20969;-72
2023/04/13 01:48:39;;;;;;;0.85;0.63;;;6.40;99.90;;;;;;7597754;19;20011;-72
2023/04/13 01:51:30;;;;;;;0.80;0.60;;;6.30;99.90;;;;;;7594458;19;20059;-72
2023/04/13 01:54:09;;;;;;;0.93;0.50;;;6.30;99.90;;;;;;7596700;19;20022;-72
2023/04/13 01:56:42;;;;;;;1.85;0.63;;;6.30;99.90;;;;;;7593362;19;20642;-72
2023/04/13 01:59:15;;;;;;;0.50;0.50;;;6.30;99.90;;;;;;7600262;19;20025;-72
2023/04/13 02:01:48;;;;;;;0.80;0.80;;;6.30;99.90;;;;;;7593883;19;20327;-72
2023/04/13 02:04:21;;;;;;;3.45;0.65;;;6.30;99.90;;;;;;7594025;19;20015;-71
2023/04/13 02:06:55;;;;;;;1.42;0.77;;;6.30;99.90;;;;;;7592431;19;20023;-72
2023/04/13 02:09:33;;;;;;;1.70;0.73;;;6.30;99.90;;;;;;7598494;19;20097;-71
2023/04/13 02:12:06;;;;;;;1.85;0.75;;;6.20;99.90;;;;;;7596712;19;20039;-72
2023/04/13 02:14:41;;;;;;;0.68;0.60;;;6.20;99.90;;;;;;7587849;19;20846;-72
2023/04/13 02:17:14;;;;;;;4.10;1.00;;;6.20;99.90;;;;;;7596560;19;20064;-72
2023/04/13 02:19:46;;;;;;;4.10;2.75;;;6.20;99.90;;;;;;7592775;19;20025;-71
2023/04/13 02:22:21;;;;;;;1.63;0.90;;;6.20;99.90;;;;;;7597876;19;20030;-72
2023/04/13 02:24:54;;;;;;;2.17;0.82;;;6.20;99.90;;;;;;7592766;19;20021;-72
2023/04/13 02:27:27;;;;;;;;;;;6.20;99.90;;;;;;7597197;19;20019;-72
2023/04/13 02:30:00;;;;;;;1.88;0.90;;;6.20;99.90;;;;;;7590760;19;19922;-72
2023/04/13 02:32:36;;;;;;;2.40;0.93;;;6.20;99.90;;;;;;7591946;19;20018;-71
2023/04/13 02:35:10;;;;;;;1.33;0.80;;;6.10;99.90;;;;;;7598003;19;20010;-71
2023/04/13 02:37:42;;;;;;;;;;;6.10;99.90;;;;;;7601767;19;20015;-71
2023/04/13 02:40:18;;;;;;;2.95;0.98;;;6.10;99.90;;;;;;7605046;19;19918;-72
2023/04/13 02:42:50;;;;;;;4.13;1.10;;;6.10;99.90;;;;;;7599794;19;20824;-71
2023/04/13 02:45:23;;;;;;;0.98;0.90;;;6.10;99.90;;;;;;7602885;19;20045;-72
2023/04/13 02:47:56;;;;;;;1.27;1.00;;;6.10;99.90;;;;;;7599908;19;20006;-71
2023/04/13 02:50:28;;;;;;;1.60;0.90;;;6.00;99.90;;;;;;7605159;19;20828;-72
2023/04/13 02:53:06;;;;;;;1.45;1.00;;;6.00;99.90;;;;;;7601782;19;20018;-72
2023/04/13 02:55:41;;;;;;;2.42;0.73;;;6.00;99.90;;;;;;7600299;19;20793;-72
2023/04/13 02:58:16;;;;;;;1.63;1.15;;;6.00;99.90;;;;;;7602628;19;20018;-72
2023/04/13 03:00:52;;;;;;;3.45;1.40;;;5.90;99.90;;;;;;7603137;19;20021;-72
2023/04/13 03:03:29;;;;;;;1.63;1.23;;;5.90;99.90;;;;;;7602295;19;21003;-72
2023/04/13 03:06:02;;;;;;;3.35;1.30;;;5.90;99.90;;;;;;7598181;19;20017;-71
2023/04/13 03:08:47;;;;;;;1.38;1.20;;;5.90;99.90;;;;;;7599145;19;20174;-71
2023/04/13 03:11:25;;;;;;;1.00;0.70;;;5.90;99.90;;;;;;7602041;19;20025;-72
2023/04/13 03:14:19;;;;;;;1.73;0.68;;;5.90;99.90;;;;;;7600846;19;20644;-72
2023/04/13 03:16:57;;;;;;;1.10;0.70;;;5.90;99.90;;;;;;7596373;19;20703;-72
2023/04/13 03:19:36;;;;;;;0.90;0.77;;;5.90;99.90;;;;;;7605047;19;20025;-72
2023/04/13 03:22:10;;;;;;;1.00;0.80;;;5.80;99.90;;;;;;7600633;19;20541;-71
2023/04/13 03:24:48;;;;;;;1.38;0.60;;;5.90;99.90;;;;;;7603660;19;20592;-71
2023/04/13 03:27:27;;;;;;;0.50;0.50;;;5.80;99.90;;;;;;7599362;19;20018;-71
2023/04/13 03:29:59;;;;;;;1.70;1.05;;;5.80;99.90;;;;;;7602796;19;20573;-71
2023/04/13 03:32:39;;;;;;;1.33;0.80;;;5.80;99.90;;;;;;7599365;19;20014;-71
2023/04/13 03:35:11;;;;;;;0.98;0.70;;;5.80;99.90;;;;;;7606776;19;20010;-72
2023/04/13 03:37:43;;;;;;;0.57;0.53;;;5.90;99.90;;;;;;7598957;19;20015;-72
2023/04/13 03:40:33;;;;;;;1.83;0.85;;;5.90;99.90;;;;;;7605120;19;20493;-71
2023/04/13 03:43:06;;;;;;;1.05;0.80;;;5.80;99.90;;;;;;7601303;19;20022;-72
2023/04/13 03:45:44;;;;;;;0.70;0.63;;;5.70;99.90;;;;;;7595330;19;20014;-72
2023/04/13 03:48:20;;;;;;;1.85;0.88;;;5.80;99.90;;;;;;7604825;19;20045;-71
2023/04/13 03:50:52;;;;;;;1.77;0.73;;;5.70;99.90;;;;;;7604730;19;21394;-72
2023/04/13 03:53:30;;;;;;;1.13;0.70;;;5.80;99.90;;;;;;7602834;19;20026;-72
2023/04/13 03:56:03;;;;;;;2.22;0.77;;;5.70;99.90;;;;;;7597408;19;20034;-71
2023/04/13 03:58:37;;;;;;;1.35;0.90;;;5.60;99.90;;;;;;7575630;19;20127;-71
2023/04/13 04:01:09;;;;;;;1.25;0.77;;;5.60;99.90;;;;;;7550182;19;20019;-72
2023/04/13 04:03:49;;;;;;;1.17;0.75;;;5.60;99.90;;;;;;7575863;19;20035;-71
2023/04/13 04:06:23;;;;;;;3.88;0.85;;;5.60;99.90;;;;;;7577859;19;20018;-72
2023/04/13 04:09:03;;;;;;;0.73;0.52;;;5.50;99.90;;;;;;7581269;19;20015;-71
2023/04/13 04:11:45;;;;;;;0.82;0.60;;;5.60;99.90;;;;;;7563220;19;20022;-71
2023/04/13 04:14:22;;;;;;;0.93;0.70;;;5.60;99.90;;;;;;7573609;19;20077;-72
2023/04/13 04:17:01;;;;;;;0.75;0.63;;;5.50;99.90;;;;;;7578316;19;21257;-72
2023/04/13 04:19:34;;;;;;;2.00;0.98;;;5.60;99.90;;;;;;7579447;19;20018;-72
2023/04/13 04:22:06;;;;;;;1.95;0.80;;;5.60;99.90;;;;;;7581074;19;20018;-72
2023/04/13 04:24:43;;;;;;;1.17;0.88;;;5.60;99.90;;;;;;7574349;19;20096;-72
2023/04/13 04:27:15;;;;;;;1.85;0.60;;;5.60;99.90;;;;;;7585158;19;20018;-72
2023/04/13 04:29:50;;;;;;;1.67;0.70;;;5.50;99.90;;;;;;7601162;19;21127;-72
2023/04/13 04:32:33;;;;;;;1.00;0.60;;;5.60;99.90;;;;;;7602282;19;20018;-72
2023/04/13 04:35:10;;;;;;;1.08;0.95;;;5.40;99.90;;;;;;7604120;19;20311;-72
2023/04/13 04:37:48;;;;;;;4.10;1.08;;;5.40;99.90;;;;;;7597055;19;20671;-72
2023/04/13 04:40:22;;;;;;;2.80;1.40;;;5.40;99.90;;;;;;7604480;19;20025;-72
2023/04/13 04:42:56;;;;;;;;;;;5.30;99.90;;;;;;7582941;19;20051;-72
2023/04/13 04:45:58;;;;;;;3.95;1.30;;;5.30;99.90;;;;;;7598340;19;20285;-72
2023/04/13 04:48:30;;;;;;;1.85;0.90;;;5.30;99.90;;;;;;7602718;19;20014;-72
2023/04/13 04:51:03;;;;;;;2.35;1.02;;;5.30;99.90;;;;;;7595951;19;20014;-72
2023/04/13 04:53:38;;;;;;;1.85;1.10;;;5.30;99.90;;;;;;7592652;19;20022;-72
2023/04/13 04:56:13;;;;;;;1.52;0.80;;;5.30;99.90;;;;;;7599678;19;20025;-71
2023/04/13 04:58:49;;;;;;;0.80;0.73;;;5.20;99.90;;;;;;7586239;19;20010;-72
2023/04/13 05:01:25;;;;;;;1.83;0.85;;;5.20;99.90;;;;;;7606438;19;20050;-72
2023/04/13 05:04:08;;;;;;;1.55;1.08;;;5.20;99.90;;;;;;7595586;19;20122;-71
2023/04/13 05:06:43;;;;;;;2.75;1.20;;;5.20;99.90;;;;;;7598562;19;20010;-72
2023/04/13 05:09:20;;;;;;;5.47;2.05;;;5.20;99.90;;;;;;7603646;19;20022;-72
2023/04/13 05:11:56;;;;;;;1.70;1.20;;;5.30;99.90;;;;;;7599016;19;20022;-72
2023/04/13 05:14:29;;;;;;;1.50;0.75;;;5.20;99.90;;;;;;7599642;19;20019;-72
2023/04/13 05:17:01;;;;;;;2.27;1.10;;;5.30;99.90;;;;;;7596243;19;20391;-72
2023/04/13 05:19:38;;;;;;;6.28;2.00;;;5.30;99.90;;;;;;7602931;19;20030;-71
2023/04/13 05:22:24;;;;;;;3.10;2.40;;;5.20;99.90;;;;;;7607381;19;20014;-72
2023/04/13 05:25:05;;;;;;;2.33;1.77;;;5.20;99.90;;;;;;7594562;19;20498;-72
2023/04/13 05:27:37;;;;;;;;;;;5.20;99.90;;;;;;7604538;19;20812;-72
2023/04/13 05:30:10;;;;;;;1.73;1.13;;;5.20;99.90;;;;;;7598459;19;19926;-73
2023/04/13 05:32:44;;;;;;;3.33;1.60;;;5.20;99.90;;;;;;7604844;19;20019;-76
2023/04/13 05:35:18;;;;;;;1.83;1.58;;;5.30;99.90;;;;;;7602587;19;20022;-74
2023/04/13 05:37:50;;;;;;;1.98;1.20;;;5.30;99.90;;;;;;7597784;19;20018;-74
2023/04/13 05:40:27;;;;;;;6.78;1.65;;;5.20;99.90;;;;;;7605481;19;20031;-73
2023/04/13 05:43:01;;;;;;;6.47;1.60;;;5.30;99.90;;;;;;7598742;19;20018;-73
2023/04/13 05:45:38;;;;;;;7.85;2.72;;;5.30;99.90;;;;;;7602752;19;20021;-73
2023/04/13 05:48:13;;;;;;;3.80;1.55;;;5.30;99.90;;;;;;7597909;19;20945;-75
2023/04/13 05:50:47;;;;;;;2.22;0.90;;;5.40;99.90;;;;;;7603506;19;21250;-74
2023/04/13 05:53:20;;;;;;;2.42;0.82;;;5.40;99.90;;;;;;7598755;19;20286;-74
2023/04/13 05:55:57;;;;;;;5.15;1.55;;;5.30;99.90;;;;;;7596350;19;20403;-74
2023/04/13 05:58:31;;;;;;;3.47;1.15;;;5.30;99.90;;;;;;7597543;19;20029;-74
2023/04/13 06:01:25;;;;;;;1.33;0.93;;;5.30;99.90;;;;;;7599010;19;20501;-74
2023/04/13 06:03:59;;;;;;;2.53;1.23;;;5.30;99.90;;;;;;7594923;19;20022;-74
2023/04/13 06:06:32;;;;;;;3.97;1.20;;;5.30;99.90;;;;;;7596176;19;20029;-73
2023/04/13 06:09:05;;;;;;;2.85;1.40;;;5.20;99.90;;;;;;7605187;19;20577;-74
2023/04/13 06:11:37;;;;;;;2.43;1.10;;;5.30;99.90;;;;;;7607878;19;20022;-73
2023/04/13 06:14:09;;;;;;;4.10;1.00;;;5.20;99.90;;;;;;7600915;19;20067;-74
2023/04/13 06:16:44;;;;;;;1.98;1.00;;;5.30;99.90;;;;;;7579739;19;20778;-73
2023/04/13 06:19:17;;;;;;;1.77;1.17;;;5.30;99.90;;;;;;7571860;19;20089;-73
2023/04/13 06:21:50;;;;;;;4.07;1.40;;;5.20;99.90;;;;;;7579475;19;20022;-73
2023/04/13 06:24:23;;;;;;;1.63;1.02;;;5.30;99.90;;;;;;7570689;19;20288;-73
2023/04/13 06:26:55;;;;;;;2.80;0.82;;;5.30;99.90;;;;;;7575477;19;20060;-74
2023/04/13 06:29:27;;;;;;;2.70;1.40;;;5.30;99.90;;;;;;7580160;19;20025;-73
2023/04/13 06:32:08;;;;;;;1.77;1.10;;;5.40;99.90;;;;;;7582682;19;20137;-73
2023/04/13 06:34:41;;;;;;;6.78;2.55;;;5.40;99.90;;;;;;7573376;19;21340;-73
2023/04/13 06:37:14;;;;;;;1.52;1.42;;;5.50;99.90;;;;;;7576946;19;20014;-73
2023/04/13 06:39:52;;;;;;;3.83;1.85;;;5.50;99.90;;;;;;7577644;19;20029;-73
2023/04/13 06:42:24;;;;;;;1.58;0.88;;;5.40;99.90;;;;;;7583222;19;20015;-73
2023/04/13 06:45:07;;;;;;;3.17;1.30;;;5.60;99.90;;;;;;7589439;19;20014;-73
2023/04/13 06:47:43;;;;;;;2.80;1.08;;;5.70;99.90;;;;;;7602446;19;20019;-73
2023/04/13 06:50:18;;;;;;;7.85;1.30;;;5.70;99.90;;;;;;7604425;19;20025;-73
2023/04/13 06:52:50;;;;;;;3.10;1.27;;;5.70;99.90;;;;;;7604618;19;20625;-73
2023/04/13 06:55:23;;;;;;;3.00;1.25;;;5.80;99.90;;;;;;7606064;19;20086;-73
2023/04/13 06:57:56;;;;;;;5.25;1.17;;;5.80;99.90;;;;;;7600709;19;20013;-73
2023/04/13 07:00:28;;;;;;;2.15;1.25;;;5.80;99.90;;;;;;7611878;19;20809;-73
2023/04/13 07:03:04;;;;;;;1.70;0.77;;;5.90;99.90;;;;;;7607985;19;20018;-75
2023/04/13 07:05:37;;;;;;;2.10;0.90;;;5.90;99.90;;;;;;7604996;19;20023;-73
2023/04/13 07:08:17;;;;;;;4.35;1.38;;;5.90;99.90;;;;;;7609459;19;20018;-73
2023/04/13 07:10:54;;;;;;;5.15;1.20;;;5.90;99.90;;;;;;7605043;19;20018;-75
2023/04/13 07:13:33;;;;;;;3.38;1.10;;;6.00;99.90;;;;;;7599093;19;20019;-73
2023/04/13 07:16:16;;;;;;;;;;;6.00;99.90;;;;;;7595371;19;20015;-73
2023/04/13 07:18:50;;;;;;;2.83;1.00;;;6.20;99.90;;;;;;7601815;19;20274;-72
2023/04/13 07:21:22;;;;;;;2.08;1.23;;;6.20;99.90;;;;;;7593099;19;20019;-73
2023/04/13 07:24:09;;;;;;;5.05;1.52;;;6.40;99.90;;;;;;7600916;19;20015;-73
2023/04/13 07:26:45;;;;;;;2.20;1.20;;;6.40;99.90;;;;;;7600152;19;20133;-72
2023/04/13 07:29:17;;;;;;;8.50;1.00;;;6.50;99.90;;;;;;7602121;19;20064;-73
2023/04/13 07:32:03;;;;;;;8.85;1.63;;;6.60;99.90;;;;;;7603670;19;20036;-72
2023/04/13 07:34:37;;;;;;;3.53;1.27;;;6.80;99.90;;;;;;7603098;19;20019;-73
2023/04/13 07:37:10;;;;;;;3.38;1.17;;;6.90;99.90;;;;;;7600502;19;20026;-73
2023/04/13 07:39:42;;;;;;;12.48;3.72;;;7.00;99.90;;;;;;7608819;19;20086;-71
2023/04/13 07:42:15;;;;;;;6.57;1.55;;;6.90;99.90;;;;;;7600189;19;20022;-73
2023/04/13 07:44:56;;;;;;;5.50;1.42;;;7.10;99.90;;;;;;7603660;19;20098;-73
2023/04/13 07:47:30;;;;;;;9.35;1.77;;;7.20;99.90;;;;;;7605128;19;20518;-71
2023/04/13 07:50:09;;;;;;;4.75;1.20;;;7.20;99.90;;;;;;7602229;19;20025;-72
2023/04/13 07:52:42;;;;;;;5.10;1.00;;;7.30;99.90;;;;;;7606196;19;20014;-72
2023/04/13 07:55:15;;;;;;;6.75;1.55;;;7.40;99.90;;;;;;7597493;19;20538;-72
2023/04/13 07:57:51;;;;;;;4.93;2.22;;;7.60;99.90;;;;;;7603408;19;20010;-73
2023/04/13 08:00:24;;;;;;;5.00;1.80;;;7.80;99.90;;;;;;7602085;19;20026;-72
2023/04/13 08:03:00;;;;;;;4.63;1.58;;;7.90;99.90;;;;;;7597541;19;20506;-73
2023/04/13 08:05:35;;;;;;;11.75;2.35;;;8.00;99.90;;;;;;7604178;19;20014;-72
2023/04/13 08:08:08;;;;;;;13.57;1.42;;;8.10;99.90;;;;;;7598201;19;20026;-72
2023/04/13 08:10:41;;;;;;;6.45;1.20;;;8.10;99.90;;;;;;7609999;19;20010;-72
2023/04/13 08:13:14;;;;;;;6.07;1.83;;;8.20;99.90;;;;;;7581367;19;21421;-72
2023/04/13 08:15:48;;;;;;;15.32;1.70;;;8.30;99.90;;;;;;7598129;19;20047;-72
2023/04/13 08:18:20;;;;;;;4.17;1.20;;;8.20;99.90;;;;;;7596592;19;20014;-71
2023/04/13 08:20:53;;;;;;;4.93;1.60;;;8.20;99.90;;;;;;7603152;19;20116;-71
2023/04/13 08:23:27;;;;;;;7.60;1.63;;;8.30;99.90;;;;;;7597809;19;20050;-71
2023/04/13 08:26:02;;;;;;;4.97;1.30;;;8.40;99.90;;;;;;7599984;19;20018;-71
2023/04/13 08:28:35;;;;;;;3.13;1.52;;;8.60;99.90;;;;;;7601861;19;20470;-72
2023/04/13 08:31:07;;;;;;;4.72;1.38;;;8.70;98.10;;;;;;7595715;19;20014;-71
2023/04/13 08:33:40;;;;;;;5.15;0.85;;;8.80;98.50;;;;;;7600357;19;20018;-71
2023/04/13 08:36:13;;;;;;;9.37;1.43;;;9.00;96.70;;;;;;7595275;19;20041;-72
2023/04/13 08:38:46;;;;;;;5.78;1.25;;;9.00;96.30;;;;;;7602664;19;21145;-71
2023/04/13 08:41:21;;;;;;;5.00;1.45;;;9.00;96.20;;;;;;7601696;19;20509;-73
2023/04/13 08:43:56;;;;;;;3.70;1.35;;;9.00;93.00;;;;;;7601095;19;20029;-71
2023/04/13 08:46:32;;;;;;;3.75;0.90;;;8.90;93.90;;;;;;7609269;19;20022;-71
2023/04/13 08:49:08;;;;;;;2.72;0.80;;;9.10;95.30;;;;;;7605028;19;20021;-72
2023/04/13 08:52:09;;;;;;;3.00;1.15;;;9.10;90.80;;;;;;7600324;19;20014;-71
2023/04/13 08:54:44;;;;;;;3.15;1.05;;;9.00;88.20;;;;;;7598955;19;20106;-72
2023/04/13 08:57:26;;;;;;;3.08;0.82;;;9.10;91.20;;;;;;7595577;19;20304;-72
2023/04/13 08:59:59;;;;;;;2.55;1.00;;;9.20;86.00;;;;;;7609528;19;20921;-72
2023/04/13 09:02:36;;;;;;;4.60;1.08;;;9.10;81.30;;;;;;7601899;19;20010;-72
2023/04/13 09:05:16;;;;;;;2.97;1.10;;;9.10;80.90;;;;;;7600208;19;20014;-71
2023/04/13 09:07:56;;;;;;;2.08;0.90;;;9.40;81.40;;;;;;7602926;19;20014;-71
2023/04/13 09:10:28;;;;;;;8.15;1.83;;;9.40;82.10;;;;;;7599147;19;20019;-71
2023/04/13 09:13:00;;;;;;;4.38;1.27;;;9.60;84.10;;;;;;7600333;19;20513;-71
2023/04/13 09:15:34;;;;;;;5.75;0.77;;;9.70;83.50;;;;;;7598973;19;20014;-71
2023/04/13 09:18:29;;;;;;;5.93;1.10;;;9.80;81.10;;;;;;7595364;19;20394;-71
2023/04/13 09:21:08;;;;;;;3.80;1.10;;;9.70;80.00;;;;;;7601394;19;20057;-71
2023/04/13 09:23:56;;;;;;;3.72;1.15;;;9.60;77.80;;;;;;7599396;19;20029;-72
2023/04/13 09:26:41;;;;;;;3.50;1.20;;;9.70;80.40;;;;;;7597118;19;21066;-72
2023/04/13 09:29:18;;;;;;;7.65;1.35;;;9.90;79.30;;;;;;7602134;19;20026;-71
2023/04/13 09:31:51;;;;;;;4.63;0.90;;;10.00;76.10;;;;;;7602886;19;20503;-71
2023/04/13 09:34:27;;;;;;;4.63;0.88;;;9.70;74.00;;;;;;7600218;19;20903;-73
2023/04/13 09:40:12;;;;;;;5.55;1.38;;;9.50;74.10;;;;;;7603934;19;20344;-72
2023/04/13 09:43:08;;;;;;;6.07;1.42;;;9.70;77.30;;;;;;7598368;19;20054;-72
2023/04/13 09:45:44;;;;;;;5.15;1.40;;;9.50;73.90;;;;;;7605690;19;20906;-72
2023/04/13 09:48:20;;;;;;;3.28;1.25;;;9.60;77.00;;;;;;7606372;19;20022;-72
2023/04/13 09:51:00;;;;;;;3.22;0.80;;;9.60;74.00;;;;;;7595251;19;20011;-72
2023/04/13 09:53:45;;;;;;;2.60;0.95;;;9.50;72.50;;;;;;7574428;19;20036;-72
2023/04/13 09:56:19;;;;;;;5.65;0.88;;;9.70;74.90;;;;;;7582435;19;20030;-72
2023/04/13 09:58:52;;;;;;;5.47;1.08;;;9.70;72.30;;;;;;7574478;19;20022;-72
2023/04/13 10:01:27;;;;;;;3.95;1.27;;;9.70;72.10;;;;;;7582534;19;20018;-72
2023/04/13 10:04:00;;;;;;;5.70;1.30;;;9.80;71.60;;;;;;7581067;19;20485;-72
2023/04/13 10:06:40;;;;;;;3.88;1.13;;;9.70;70.40;;;;;;7582471;19;20474;-72
2023/04/13 10:09:13;;;;;;;6.30;1.52;;;9.70;72.70;;;;;;7575711;19;21348;-71
2023/04/13 10:11:49;;;;;;;2.05;1.13;;;9.90;73.40;;;;;;7585728;19;20028;-73
2023/04/13 10:14:30;;;;;;;7.40;1.17;;;10.00;72.50;;;;;;7610176;19;20021;-73
2023/04/13 10:17:30;;;;;;;3.65;1.25;;;10.20;74.40;;;;;;7609993;19;20022;-72
2023/04/13 10:20:11;;;;;;;4.40;1.40;;;10.20;74.40;;;;;;7611727;19;20017;-73
2023/04/13 10:22:45;;;;;;;12.68;1.98;;;10.50;72.50;;;;;;7611885;19;20025;-73
2023/04/13 10:25:18;;;;;;;5.20;1.38;;;10.60;70.60;;;;;;7606992;19;20010;-73
2023/04/13 10:28:04;;;;;;;3.63;1.00;;;10.70;71.80;;;;;;7607714;19;20022;-73
2023/04/13 10:30:48;;;;;;;4.63;1.40;;;10.40;68.00;;;;;;7609128;19;20059;-73
2023/04/13 10:33:21;;;;;;;4.60;1.58;;;10.30;69.30;;;;;;7606145;19;20037;-71
2023/04/13 10:35:58;;;;;;;4.28;1.20;;;10.20;69.20;;;;;;7607079;19;20098;-72
2023/04/13 10:38:40;;;;;;;6.80;1.25;;;10.30;70.60;;;;;;7602188;19;20022;-72
2023/04/13 10:41:23;;;;;;;4.25;1.38;;;10.10;68.40;;;;;;7609208;19;20014;-72
2023/04/13 10:44:04;;;;;;;7.20;1.60;;;10.10;68.70;;;;;;7604157;19;20018;-71
2023/04/13 10:46:36;;;;;;;7.10;2.35;;;10.20;69.60;;;;;;7602979;19;20038;-71
2023/04/13 10:49:09;;;;;;;8.90;3.15;;;10.10;69.30;;;;;;7604864;19;20029;-71
2023/04/13 10:51:43;;;;;;;5.28;1.10;;;10.20;71.40;;;;;;7610713;19;20014;-71
2023/04/13 10:54:16;;;;;;;11.75;4.50;;;10.20;69.30;;;;;;7600905;19;20029;-72
2023/04/13 10:57:15;;;;;;;8.30;2.93;;;10.20;69.50;;;;;;7605320;19;20055;-72
2023/04/13 10:59:55;;;;;;;5.80;2.20;;;10.10;67.20;;;;;;7605163;19;20803;-71
2023/04/13 11:02:31;;;;;;;6.35;2.42;;;10.20;68.40;;;;;;7600073;19;20026;-71
2023/04/13 11:05:04;;;;;;;7.18;2.83;;;10.20;69.90;;;;;;7608145;19;20023;-72
2023/04/13 11:07:37;;;;;;;9.95;2.63;;;10.10;69.10;;;;;;7604584;19;21516;-72
2023/04/13 11:10:10;;;;;;;7.50;2.60;;;10.20;69.70;;;;;;7606490;19;20516;-72
2023/04/13 11:12:50;;;;;;;10.88;2.35;;;10.10;69.50;;;;;;7606406;19;20014;-72
2023/04/13 11:15:28;;;;;;;5.95;1.45;;;10.00;69.30;;;;;;7600919;19;20667;-71
2023/04/13 11:18:01;;;;;;;4.50;1.45;;;9.80;70.20;;;;;;7607911;19;20082;-72
2023/04/13 11:20:35;;;;;;;5.72;1.20;;;9.90;72.40;;;;;;7596243;19;20087;-72
2023/04/13 11:23:14;;;;;;;2.67;1.20;;;9.80;71.10;;;;;;7605134;19;20033;-71
2023/04/13 11:25:58;;;;;;;2.83;1.58;;;9.70;69.70;;;;;;7603993;19;20394;-71
2023/04/13 11:28:40;;;;;;;;;;;9.70;71.10;;;;;;7599569;19;20018;-72
2023/04/13 11:31:13;;;;;;;4.18;1.33;;;9.70;72.10;;;;;;7604038;19;19922;-72
2023/04/13 11:33:48;;;;;;;5.28;1.15;;;9.60;70.80;;;;;;7603544;19;20053;-71
2023/04/13 11:36:22;;;;;;;4.82;1.40;;;9.60;72.00;;;;;;7600059;19;20653;-72
2023/04/13 11:38:54;;;;;;;4.90;1.75;;;9.50;71.80;;;;;;7605156;19;20022;-71
2023/04/13 11:41:31;;;;;;;7.45;2.03;;;9.50;71.00;;;;;;7604909;19;20021;-72
2023/04/13 11:44:03;;;;;;;7.30;1.13;;;9.50;72.60;;;;;;7599231;19;20216;-71
2023/04/13 11:46:36;;;;;;;2.87;1.10;;;9.50;72.50;;;;;;7604089;19;20018;-72
2023/04/13 11:49:09;;;;;;;6.57;1.08;;;9.50;71.10;;;;;;7608553;19;20023;-71
2023/04/13 11:51:42;;;;;;;4.43;1.48;;;9.40;70.50;;;;;;7604409;19;20014;-72
2023/04/13 11:54:16;;;;;;;6.97;1.35;;;9.30;70.90;;;;;;7601998;19;20014;-71
2023/04/13 11:56:49;;;;;;;4.05;1.23;;;9.40;70.60;;;;;;7603227;19;20562;-72
2023/04/13 11:59:23;;;;;;;5.40;0.95;;;9.30;72.40;;;;;;7603989;19;20383;-71
2023/04/13 12:01:55;;;;;;;;;;;9.40;73.60;;;;;;7608995;19;20097;-71
2023/04/13 12:04:37;;;;;;;6.07;1.92;;;9.30;73.10;;;;;;7606438;19;19918;-71
2023/04/13 12:07:13;;;;;;;2.13;0.80;;;9.30;75.60;;;;;;7600115;19;20023;-72
2023/04/13 12:09:50;;;;;;;6.45;1.65;;;9.40;73.90;;;;;;7606276;19;20019;-72
2023/04/13 12:12:31;;;;;;;5.73;1.07;;;9.30;71.60;;;;;;7552527;19;20122;-75
2023/04/13 12:15:26;;;;;;;4.22;1.20;;;9.30;72.90;;;;;;7540163;19;20023;-76
2023/04/13 12:18:05;;;;;;;3.78;1.05;;;9.40;73.70;;;;;;7546667;19;20015;-74
2023/04/13 12:20:47;;;;;;;3.60;0.70;;;9.60;73.10;;;;;;7581424;19;20026;-74
2023/04/13 12:23:24;;;;;;;4.32;1.30;;;9.60;72.00;;;;;;7557258;19;20019;-74
2023/04/13 12:26:03;;;;;;;3.58;1.10;;;9.60;71.80;;;;;;7558027;19;20098;-74
2023/04/13 12:28:56;;;;;;;7.25;1.15;;;9.60;69.60;;;;;;7587651;19;20023;-75
2023/04/13 12:31:36;;;;;;;9.07;1.52;;;9.60;71.00;;;;;;7581767;19;20018;-74
2023/04/13 12:34:08;;;;;;;6.95;0.90;;;9.50;69.20;;;;;;7591194;19;20397;-75
2023/04/13 12:36:41;;;;;;;4.13;1.10;;;9.40;70.20;;;;;;7577650;19;20018;-74
2023/04/13 12:39:13;;;;;;;2.05;0.98;;;9.40;71.20;;;;;;7546112;19;20018;-75
2023/04/13 12:41:45;;;;;;;13.20;1.42;;;9.40;71.30;;;;;;7570755;19;20018;-75
2023/04/13 12:44:18;;;;;;;2.58;0.98;;;9.40;70.50;;;;;;7572126;19;21370;-73
2023/04/13 12:46:50;;;;;;;2.58;1.00;;;9.40;72.40;;;;;;7580859;19;20011;-75
2023/04/13 12:49:23;;;;;;;2.83;1.08;;;9.50;73.90;;;;;;7565857;19;20014;-75
2023/04/13 12:51:55;;;;;;;3.63;1.08;;;9.50;71.40;;;;;;7576341;19;20025;-75
2023/04/13 12:54:29;;;;;;;4.20;1.10;;;9.50;71.90;;;;;;7568198;19;21516;-73
2023/04/13 12:57:02;;;;;;;6.93;1.83;;;9.60;71.20;;;;;;7581764;19;20881;-75
2023/04/13 12:59:34;;;;;;;5.77;0.80;;;9.40;71.20;;;;;;7576440;19;20014;-75
2023/04/13 13:02:06;;;;;;;5.00;1.27;;;9.40;73.90;;;;;;7585748;19;20007;-74
2023/04/13 13:04:38;;;;;;;3.95;1.20;;;9.40;73.50;;;;;;7580430;19;20026;-76
2023/04/13 13:07:11;;;;;;;6.00;1.55;;;9.30;72.50;;;;;;7546376;19;20067;-75
2023/04/13 13:09:43;;;;;;;5.72;1.48;;;9.30;72.80;;;;;;7581669;19;20074;-75
2023/04/13 13:12:16;;;;;;;2.90;1.02;;;9.30;72.20;;;;;;7582135;19;20014;-74
2023/04/13 13:14:48;;;;;;;10.02;1.88;;;9.20;72.20;;;;;;7563370;19;21050;-75
2023/04/13 13:17:20;;;;;;;6.60;1.27;;;9.20;71.80;;;;;;7578580;19;20026;-76
2023/04/13 13:19:54;;;;;;;5.38;1.27;;;9.10;73.30;;;;;;7578471;19;20056;-74
2023/04/13 13:22:27;;;;;;;4.03;1.08;;;9.10;73.70;;;;;;7561646;19;20022;-75
2023/04/13 13:25:00;;;;;;;6.18;1.40;;;9.00;74.00;;;;;;7541856;19;20041;-74
2023/04/13 13:27:38;;;;;;;3.35;1.38;;;8.80;74.80;;;;;;7524481;19;20026;-74
2023/04/13 13:30:30;;;;;;;5.32;1.35;;;8.80;75.10;;;;;;7565772;19;20022;-74
2023/04/13 13:33:03;;;;;;;4.88;1.63;;;8.70;75.80;;;;;;7573308;19;20047;-74
2023/04/13 13:35:36;;;;;;;4.38;1.52;;;8.70;77.00;;;;;;7566413;19;20014;-74
2023/04/13 13:38:09;;;;;;;3.35;1.38;;;8.80;77.30;;;;;;7586218;19;20063;-74
2023/04/13 13:40:42;;;;;;;4.70;1.60;;;8.80;77.70;;;;;;7564151;19;20128;-76
2023/04/13 13:43:20;;;;;;;8.77;1.20;;;8.90;78.90;;;;;;7504396;19;20032;-75
2023/04/13 13:45:52;;;;;;;4.32;1.33;;;9.00;79.70;;;;;;7530545;19;20963;-75
2023/04/13 13:48:25;;;;;;;4.15;1.38;;;9.00;80.70;;;;;;7541426;19;20481;-75